createdAt,value
2022-08-10T00:01:55.572Z,26.70
2022-08-10T00:04:24.130Z,26.70
2022-08-10T00:06:53.683Z,26.60
2022-08-10T00:09:22.170Z,26.60
2022-08-10T00:11:49.357Z,26.60
2022-08-10T00:14:16.821Z,26.60
2022-08-10T00:16:43.971Z,26.60
2022-08-10T00:19:11.182Z,26.60
2022-08-10T00:21:38.311Z,26.60
2022-08-10T00:24:05.926Z,26.60
2022-08-10T00:27:52.744Z,26.60
2022-08-10T00:29:20.354Z,26.60
2022-08-10T00:31:58.709Z,26.60
2022-08-10T00:34:28.082Z,26.60
2022-08-10T00:36:55.878Z,26.60
2022-08-10T00:39:23.279Z,26.60
2022-08-10T00:42:06.382Z,26.60
2022-08-10T00:44:40.484Z,26.50
2022-08-10T00:47:17.479Z,26.50
2022-08-10T00:49:55.388Z,26.50
2022-08-10T00:52:24.805Z,26.50
2022-08-10T00:54:52.367Z,26.60
2022-08-10T00:57:20.057Z,26.50
2022-08-10T00:59:57.760Z,26.50
2022-08-10T01:02:25.653Z,26.50
2022-08-10T01:05:00.328Z,26.50
2022-08-10T01:07:59.487Z,26.50
2022-08-10T01:10:49.994Z,26.50
2022-08-10T01:13:38.102Z,26.50
2022-08-10T01:16:27.294Z,26.50
2022-08-10T01:19:01.266Z,26.50
2022-08-10T01:22:08.051Z,26.50
2022-08-10T01:25:09.913Z,26.50
2022-08-10T01:28:16.690Z,26.50
2022-08-10T01:30:47.225Z,26.50
2022-08-10T01:33:28.860Z,26.50
2022-08-10T01:36:11.848Z,26.50
2022-08-10T01:38:46.991Z,26.50
2022-08-10T01:41:26.700Z,26.50
2022-08-10T01:44:12.388Z,26.50
2022-08-10T01:46:45.318Z,26.50
2022-08-10T01:49:15.959Z,26.50
2022-08-10T01:51:56.548Z,26.50
2022-08-10T01:54:30.389Z,26.50
2022-08-10T01:56:59.876Z,26.50
2022-08-10T01:59:39.441Z,26.50
2022-08-10T02:02:10.330Z,26.50
2022-08-10T02:04:41.782Z,26.50
2022-08-10T02:07:13.525Z,26.50
2022-08-10T02:09:45.988Z,26.50
2022-08-10T02:12:18.561Z,26.50
2022-08-10T02:14:53.517Z,26.50
2022-08-10T02:18:00.423Z,26.40
2022-08-10T02:20:19.771Z,26.50
2022-08-10T02:22:51.370Z,26.50
2022-08-10T02:25:41.156Z,26.40
2022-08-10T02:28:10.107Z,26.40
2022-08-10T02:30:38.230Z,26.40
2022-08-10T02:33:07.041Z,26.50
2022-08-10T02:35:54.603Z,26.50
2022-08-10T02:38:58.495Z,26.50
2022-08-10T02:45:15.846Z,26.50
2022-08-10T02:45:21.688Z,26.40
2022-08-10T02:47:51.220Z,26.50
2022-08-10T02:50:36.712Z,26.40
2022-08-10T02:53:51.390Z,26.50
2022-08-10T02:56:35.753Z,26.40
2022-08-10T02:59:13.481Z,26.40
2022-08-10T03:01:47.996Z,26.50
2022-08-10T03:04:21.007Z,26.40
2022-08-10T03:07:13.196Z,26.40
2022-08-10T03:09:41.843Z,26.40
2022-08-10T03:12:35.898Z,26.40
2022-08-10T03:15:01.405Z,26.40
2022-08-10T03:17:30.676Z,26.40
2022-08-10T03:20:34.667Z,26.40
2022-08-10T03:22:48.174Z,26.40
2022-08-10T03:25:16.008Z,26.40
2022-08-10T03:27:43.772Z,26.40
2022-08-10T03:30:28.319Z,26.40
2022-08-10T03:33:00.598Z,26.40
2022-08-10T03:35:28.809Z,26.40
2022-08-10T03:37:59.447Z,26.40
2022-08-10T03:40:45.492Z,26.40
2022-08-10T03:43:19.790Z,26.40
2022-08-10T03:45:57.423Z,26.40
2022-08-10T03:48:32.292Z,26.40
2022-08-10T03:51:16.209Z,26.40
2022-08-10T03:54:03.022Z,26.40
2022-08-10T03:56:32.986Z,26.40
2022-08-10T03:59:01.224Z,26.40
2022-08-10T04:02:47.062Z,26.40
2022-08-10T04:04:22.916Z,26.40
2022-08-10T04:06:54.844Z,26.40
2022-08-10T04:09:43.076Z,26.40
2022-08-10T04:12:12.554Z,26.40
2022-08-10T04:14:50.394Z,26.40
2022-08-10T04:17:56.846Z,26.40
2022-08-10T04:20:11.859Z,26.40
2022-08-10T04:22:41.924Z,26.40
2022-08-10T04:25:09.992Z,26.40
2022-08-10T04:27:37.411Z,26.40
2022-08-10T04:30:05.026Z,26.40
2022-08-10T04:32:34.465Z,26.40
2022-08-10T04:35:04.974Z,26.40
2022-08-10T04:37:33.322Z,26.50
2022-08-10T04:40:01.701Z,26.50
2022-08-10T04:42:29.019Z,26.50
2022-08-10T04:44:57.229Z,26.50
2022-08-10T04:47:57.757Z,26.50
2022-08-10T04:50:11.601Z,26.50
2022-08-10T04:52:39.350Z,26.50
2022-08-10T04:55:06.836Z,26.50
2022-08-10T04:57:33.990Z,26.50
2022-08-10T05:00:01.148Z,26.50
2022-08-10T05:02:38.729Z,26.60
2022-08-10T05:05:06.492Z,26.60
2022-08-10T05:07:37.496Z,26.60
2022-08-10T05:10:20.810Z,26.50
2022-08-10T05:12:47.903Z,26.50
2022-08-10T05:15:15.742Z,26.40
2022-08-10T05:18:09.417Z,26.30
2022-08-10T05:20:30.797Z,26.10
2022-08-10T05:22:57.889Z,25.90
2022-08-10T05:25:25.108Z,25.60
2022-08-10T05:27:52.641Z,25.30
2022-08-10T05:30:23.730Z,24.90
2022-08-10T05:32:56.226Z,24.50
2022-08-10T05:35:28.568Z,24.20
2022-08-10T05:38:10.909Z,23.80
2022-08-10T05:40:47.278Z,23.40
2022-08-10T05:43:23.047Z,23.00
2022-08-10T05:46:17.571Z,22.70
2022-08-10T05:48:59.098Z,22.40
2022-08-10T05:51:30.257Z,22.00
2022-08-10T05:54:02.576Z,21.70
2022-08-10T05:56:56.611Z,21.50
2022-08-10T06:00:35.542Z,21.30
2022-08-10T06:02:36.650Z,20.90
2022-08-10T06:05:25.698Z,20.70
2022-08-10T06:08:00.995Z,20.60
2022-08-10T06:10:35.266Z,20.50
2022-08-10T06:13:30.757Z,20.60
2022-08-10T06:16:06.664Z,20.50
2022-08-10T06:18:33.989Z,20.50
2022-08-10T06:21:02.540Z,20.50
2022-08-10T06:23:30.972Z,20.40
2022-08-10T06:26:09.815Z,20.30
2022-08-10T06:29:02.039Z,20.40
2022-08-10T06:31:48.365Z,20.50
2022-08-10T06:34:21.384Z,20.60
2022-08-10T06:36:49.264Z,20.80
2022-08-10T06:39:32.798Z,20.90
2022-08-10T06:42:17.560Z,21.10
2022-08-10T06:45:02.161Z,21.20
2022-08-10T06:47:53.568Z,21.30
2022-08-10T06:50:44.942Z,21.10
2022-08-10T06:53:18.497Z,21.10
2022-08-10T06:55:56.835Z,21.20
2022-08-10T06:58:34.300Z,21.20
2022-08-10T07:01:05.699Z,21.10
2022-08-10T07:03:39.106Z,21.10
2022-08-10T07:06:08.149Z,21.00
2022-08-10T07:08:36.941Z,21.10
2022-08-10T07:11:10.026Z,21.30
2022-08-10T07:14:16.884Z,21.20
2022-08-10T07:16:29.906Z,21.10
2022-08-10T07:18:58.942Z,21.10
2022-08-10T07:21:28.485Z,21.30
2022-08-10T07:24:00.403Z,21.20
2022-08-10T07:26:30.524Z,21.10
2022-08-10T07:28:59.581Z,21.20
2022-08-10T07:31:54.508Z,21.30
2022-08-10T07:34:28.902Z,21.50
2022-08-10T07:37:03.026Z,21.60
2022-08-10T07:40:02.330Z,21.40
2022-08-10T07:42:31.341Z,21.40
2022-08-10T07:44:59.184Z,21.60
2022-08-10T07:47:53.957Z,21.70
2022-08-10T07:50:24.999Z,21.60
2022-08-10T07:52:55.773Z,21.60
2022-08-10T07:56:04.295Z,21.60
2022-08-10T07:58:11.700Z,21.70
2022-08-10T08:00:40.789Z,21.80
2022-08-10T08:03:10.953Z,21.70
2022-08-10T08:05:58.173Z,21.60
2022-08-10T08:08:28.965Z,21.50
2022-08-10T08:10:58.558Z,21.50
2022-08-10T08:13:26.770Z,21.50
2022-08-10T08:16:21.309Z,21.60
2022-08-10T08:18:58.392Z,21.60
2022-08-10T08:24:09.523Z,21.60
2022-08-10T08:24:30.801Z,21.60
2022-08-10T08:27:02.859Z,21.70
2022-08-10T08:29:34.636Z,21.80
2022-08-10T08:32:04.108Z,21.70
2022-08-10T08:34:34.266Z,21.60
2022-08-10T08:37:03.813Z,21.50
2022-08-10T08:39:37.181Z,21.60
2022-08-10T08:42:18.716Z,21.70
2022-08-10T08:45:24.066Z,21.70
2022-08-10T08:48:29.709Z,21.80
2022-08-10T08:52:09.463Z,21.60
2022-08-10T08:54:29.758Z,21.70
2022-08-10T08:57:08.217Z,21.60
2022-08-10T09:00:15.358Z,21.60
2022-08-10T09:03:10.866Z,21.40
2022-08-10T09:06:17.647Z,21.50
2022-08-10T09:09:24.502Z,21.40
2022-08-10T09:12:12.839Z,21.10
2022-08-10T09:15:06.556Z,20.90
2022-08-10T09:17:55.363Z,20.70
2022-08-10T09:20:56.103Z,20.60
2022-08-10T09:24:05.081Z,20.40
2022-08-10T09:26:52.172Z,20.30
2022-08-10T09:29:33.281Z,20.20
2022-08-10T09:36:14.742Z,20.10
2022-08-10T09:36:25.995Z,20.10
2022-08-10T09:38:40.256Z,20.10
2022-08-10T09:41:40.753Z,20.10
2022-08-10T09:44:27.991Z,20.20
2022-08-10T09:48:01.083Z,20.10
2022-08-10T09:51:22.806Z,20.10
2022-08-10T09:54:04.622Z,20.20
2022-08-10T09:57:45.044Z,20.20
2022-08-10T10:00:14.573Z,20.30
2022-08-10T10:03:17.708Z,20.30
2022-08-10T10:06:12.717Z,20.30
2022-08-10T10:09:15.726Z,20.30
2022-08-10T10:12:19.773Z,20.30
2022-08-10T10:15:25.059Z,20.30
2022-08-10T10:18:32.595Z,20.20
2022-08-10T10:21:55.168Z,20.20
2022-08-10T10:24:52.856Z,20.20
2022-08-10T10:27:49.326Z,20.10
2022-08-10T10:30:19.337Z,20.10
2022-08-10T10:33:00.493Z,20.00
2022-08-10T10:35:48.670Z,20.00
2022-08-10T10:38:19.135Z,20.00
2022-08-10T10:40:59.481Z,20.00
2022-08-10T10:44:02.757Z,20.00
2022-08-10T10:46:57.580Z,19.90
2022-08-10T10:49:52.653Z,19.90
2022-08-10T10:52:49.910Z,19.90
2022-08-10T10:55:32.341Z,19.90
2022-08-10T10:58:22.447Z,20.00
2022-08-10T11:01:10.591Z,20.00
2022-08-10T11:04:06.479Z,20.00
2022-08-10T11:07:14.084Z,20.00
2022-08-10T11:10:04.569Z,20.00
2022-08-10T11:14:24.501Z,20.00
2022-08-10T11:16:28.786Z,20.10
2022-08-10T11:19:07.809Z,20.00
2022-08-10T11:22:03.769Z,20.00
2022-08-10T11:24:54.252Z,20.00
2022-08-10T11:27:52.640Z,20.00
2022-08-10T11:30:26.062Z,19.90
2022-08-10T11:33:36.806Z,19.90
2022-08-10T11:36:26.470Z,19.90
2022-08-10T11:39:16.657Z,19.80
2022-08-10T11:42:09.552Z,19.90
2022-08-10T11:45:19.448Z,19.90
2022-08-10T11:48:09.572Z,19.90
2022-08-10T11:50:51.021Z,20.00
2022-08-10T11:53:39.044Z,20.00
2022-08-10T11:56:11.401Z,20.00
2022-08-10T11:59:16.744Z,20.10
2022-08-10T12:01:47.262Z,20.10
2022-08-10T12:04:16.410Z,20.10
2022-08-10T12:06:55.597Z,20.10
2022-08-10T12:10:11.563Z,20.10
2022-08-10T12:12:13.363Z,20.10
2022-08-10T12:15:05.448Z,20.10
2022-08-10T12:17:47.749Z,20.10
2022-08-10T12:20:36.047Z,20.20
2022-08-10T12:23:13.972Z,20.20
2022-08-10T12:26:15.201Z,20.20
2022-08-10T12:29:21.412Z,20.20
2022-08-10T12:32:06.800Z,20.20
2022-08-10T12:34:51.375Z,20.20
2022-08-10T12:37:27.146Z,20.20
2022-08-10T12:40:34.372Z,20.20
2022-08-10T12:44:04.817Z,20.30
2022-08-10T12:46:51.112Z,20.30
2022-08-10T12:50:31.559Z,20.30
2022-08-10T12:52:35.044Z,20.40
2022-08-10T12:55:05.126Z,20.40
2022-08-10T12:57:36.758Z,20.40
2022-08-10T13:00:07.306Z,20.40
2022-08-10T13:02:48.931Z,20.40
2022-08-10T13:05:17.686Z,20.50
2022-08-10T13:08:25.022Z,20.50
2022-08-10T13:10:49.426Z,20.50
2022-08-10T13:13:20.800Z,20.60
2022-08-10T13:15:52.716Z,20.60
2022-08-10T13:18:28.011Z,20.60
2022-08-10T13:21:00.693Z,20.70
2022-08-10T13:23:31.989Z,20.70
2022-08-10T13:26:01.184Z,20.70
2022-08-10T13:28:45.258Z,20.70
2022-08-10T13:31:18.880Z,20.80
2022-08-10T13:34:41.299Z,20.80
2022-08-10T13:36:43.898Z,20.90
2022-08-10T13:39:13.925Z,20.90
2022-08-10T13:41:43.889Z,20.90
2022-08-10T13:44:16.024Z,20.90
2022-08-10T13:46:51.608Z,20.90
2022-08-10T13:49:21.892Z,21.00
2022-08-10T13:51:57.050Z,21.00
2022-08-10T13:54:39.117Z,21.00
2022-08-10T13:57:07.132Z,21.00
2022-08-10T14:00:37.356Z,21.10
2022-08-10T14:02:43.935Z,21.10
2022-08-10T14:05:12.159Z,21.10
2022-08-10T14:08:01.096Z,21.10
2022-08-10T14:11:09.184Z,21.20
2022-08-10T14:13:22.472Z,21.10
2022-08-10T14:15:50.625Z,21.10
2022-08-10T14:18:19.072Z,21.20
2022-08-10T14:20:50.809Z,21.20
2022-08-10T14:23:18.123Z,21.20
2022-08-10T14:26:08.048Z,21.30
2022-08-10T14:28:42.673Z,21.30
2022-08-10T14:31:19.840Z,21.30
2022-08-10T14:33:54.723Z,21.30
2022-08-10T14:36:44.116Z,21.30
2022-08-10T14:39:25.341Z,21.30
2022-08-10T14:42:01.489Z,21.30
2022-08-10T14:44:45.177Z,21.30
2022-08-10T14:47:52.094Z,21.40
2022-08-10T14:50:03.529Z,21.40
2022-08-10T14:52:39.017Z,21.40
2022-08-10T14:55:19.099Z,21.40
2022-08-10T14:58:16.636Z,21.40
2022-08-10T15:00:43.000Z,21.50
2022-08-10T15:04:01.800Z,21.60
2022-08-10T15:06:08.068Z,21.70
2022-08-10T15:08:47.096Z,22.00
2022-08-10T15:12:12.229Z,22.10
2022-08-10T15:14:14.917Z,22.30
2022-08-10T15:16:55.551Z,22.60
2022-08-10T15:20:00.916Z,22.80
2022-08-10T15:22:36.294Z,23.00
2022-08-10T15:25:19.471Z,23.30
2022-08-10T15:27:56.678Z,23.50
2022-08-10T15:30:31.113Z,23.70
2022-08-10T15:33:57.539Z,23.90
2022-08-10T15:36:34.604Z,24.10
2022-08-10T15:39:05.051Z,24.30
2022-08-10T15:41:59.182Z,24.50
2022-08-10T15:44:42.244Z,24.70
2022-08-10T15:47:23.525Z,24.80
2022-08-10T15:50:02.292Z,24.90
2022-08-10T15:53:01.140Z,25.00
2022-08-10T15:55:41.656Z,25.20
2022-08-10T15:58:38.794Z,25.30
2022-08-10T16:02:12.604Z,25.40
2022-08-10T16:04:36.958Z,25.60
2022-08-10T16:07:11.587Z,25.70
2022-08-10T16:10:24.578Z,25.90
2022-08-10T16:13:00.066Z,26.00
2022-08-10T16:15:29.869Z,26.10
2022-08-10T16:18:12.863Z,26.30
2022-08-10T16:20:55.085Z,26.50
2022-08-10T16:23:30.594Z,26.60
2022-08-10T16:26:13.455Z,26.80
2022-08-10T16:28:51.882Z,26.90
2022-08-10T16:31:22.449Z,27.10
2022-08-10T16:33:56.692Z,27.20
2022-08-10T16:36:42.235Z,27.30
2022-08-10T16:39:15.718Z,27.30
2022-08-10T16:42:04.535Z,27.40
2022-08-10T16:44:41.663Z,27.50
2022-08-10T16:47:10.864Z,27.60
2022-08-10T16:49:40.104Z,27.70
2022-08-10T16:52:07.974Z,27.80
2022-08-10T16:54:37.632Z,27.90
2022-08-10T16:57:09.753Z,28.00
2022-08-10T16:59:39.503Z,28.00
2022-08-10T17:02:08.426Z,28.10
2022-08-10T17:04:39.507Z,28.20
2022-08-10T17:07:14.450Z,28.20
2022-08-10T17:09:47.727Z,28.20
2022-08-10T17:12:19.180Z,28.20
2022-08-10T17:14:52.432Z,28.20
2022-08-10T17:17:45.869Z,28.20
2022-08-10T17:20:31.973Z,28.30
2022-08-10T17:23:03.077Z,28.30
2022-08-10T17:25:48.989Z,28.40
2022-08-10T17:28:33.038Z,28.40
2022-08-10T17:31:51.622Z,28.40
2022-08-10T17:34:10.022Z,28.40
2022-08-10T17:36:37.779Z,28.40
2022-08-10T17:39:08.724Z,28.40
2022-08-10T17:41:37.925Z,28.30
2022-08-10T17:44:06.621Z,28.30
2022-08-10T17:46:44.081Z,28.30
2022-08-10T17:49:18.743Z,28.20
2022-08-10T17:51:53.711Z,28.20
2022-08-10T17:54:27.010Z,28.10
2022-08-10T17:57:00.281Z,28.10
2022-08-10T17:59:30.934Z,28.00
2022-08-10T18:02:03.672Z,28.00
2022-08-10T18:04:41.421Z,28.00
2022-08-10T18:07:10.601Z,28.00
2022-08-10T18:09:42.531Z,27.90
2022-08-10T18:12:27.728Z,27.90
2022-08-10T18:15:04.728Z,27.80
2022-08-10T18:17:38.310Z,27.80
2022-08-10T18:20:09.256Z,27.80
2022-08-10T18:22:45.027Z,27.70
2022-08-10T18:25:29.707Z,27.80
2022-08-10T18:28:03.881Z,27.70
2022-08-10T18:30:36.292Z,27.70
2022-08-10T18:33:08.768Z,27.70
2022-08-10T18:35:37.594Z,27.70
2022-08-10T18:38:06.844Z,27.70
2022-08-10T18:40:36.997Z,27.60
2022-08-10T18:44:06.298Z,27.60
2022-08-10T18:45:57.934Z,27.60
2022-08-10T18:48:33.360Z,27.60
2022-08-10T18:51:05.882Z,27.60
2022-08-10T18:53:48.549Z,27.50
2022-08-10T18:56:45.943Z,27.50
2022-08-10T19:00:03.881Z,27.50
2022-08-10T19:02:46.106Z,27.50
2022-08-10T19:05:38.690Z,27.50
2022-08-10T19:08:48.705Z,27.50
2022-08-10T19:11:43.603Z,27.40
2022-08-10T19:14:36.180Z,27.40
2022-08-10T19:17:23.613Z,27.40
2022-08-10T19:20:30.532Z,27.40
2022-08-10T19:23:37.785Z,27.40
2022-08-10T19:26:46.152Z,27.30
2022-08-10T19:30:08.282Z,27.30
2022-08-10T19:32:52.551Z,27.30
2022-08-10T19:35:34.532Z,27.30
2022-08-10T19:39:01.380Z,27.30
2022-08-10T19:41:44.820Z,27.30
2022-08-10T19:44:52.909Z,27.30
2022-08-10T19:47:45.365Z,27.30
2022-08-10T19:50:19.705Z,27.30
2022-08-10T19:52:59.179Z,27.20
2022-08-10T19:56:24.655Z,27.20
2022-08-10T20:00:16.852Z,27.20
2022-08-10T20:02:26.017Z,27.20
2022-08-10T20:05:15.401Z,27.20
2022-08-10T20:08:20.248Z,27.20
2022-08-10T20:11:44.422Z,27.20
2022-08-10T20:14:21.991Z,27.20
2022-08-10T20:16:55.917Z,27.10
2022-08-10T20:19:53.595Z,27.10
2022-08-10T20:22:29.360Z,27.10
2022-08-10T20:25:14.812Z,27.10
2022-08-10T20:28:00.003Z,27.10
2022-08-10T20:30:33.695Z,27.10
2022-08-10T20:33:12.459Z,27.10
2022-08-10T20:35:54.077Z,27.10
2022-08-10T20:38:33.342Z,27.10
2022-08-10T20:41:27.061Z,27.10
2022-08-10T20:44:32.845Z,27.10
2022-08-10T20:47:22.103Z,27.00
2022-08-10T20:50:06.911Z,27.00
2022-08-10T20:52:36.950Z,27.00
2022-08-10T20:55:08.806Z,27.00
2022-08-10T20:58:13.585Z,27.00
2022-08-10T21:00:58.205Z,26.90
2022-08-10T21:04:06.881Z,26.90
2022-08-10T21:07:32.918Z,26.90
2022-08-10T21:10:33.889Z,26.90
2022-08-10T21:13:32.240Z,26.90
2022-08-10T21:16:23.761Z,26.90
2022-08-10T21:19:31.369Z,26.80
2022-08-10T21:22:21.397Z,26.80
2022-08-10T21:25:07.031Z,26.80
2022-08-10T21:28:13.511Z,26.80
2022-08-10T21:31:05.651Z,26.80
2022-08-10T21:34:04.910Z,26.70
2022-08-10T21:36:37.508Z,26.70
2022-08-10T21:39:42.790Z,26.70
2022-08-10T21:43:07.248Z,26.70
2022-08-10T21:46:21.093Z,26.70
2022-08-10T21:49:23.004Z,26.60
2022-08-10T21:52:26.629Z,26.60
2022-08-10T21:55:58.154Z,26.60
2022-08-10T21:58:56.045Z,26.60
2022-08-10T22:01:58.229Z,26.60
2022-08-10T22:04:46.313Z,26.50
2022-08-10T22:07:41.234Z,26.50
2022-08-10T22:10:30.975Z,26.50
2022-08-10T22:13:23.370Z,26.50
2022-08-10T22:16:14.951Z,26.50
2022-08-10T22:19:14.952Z,26.50
2022-08-10T22:22:27.846Z,26.50
2022-08-10T22:25:33.558Z,26.40
2022-08-10T22:28:20.806Z,26.40
2022-08-10T22:31:31.502Z,26.40
2022-08-10T22:34:44.026Z,26.40
2022-08-10T22:37:46.493Z,26.40
2022-08-10T22:40:41.232Z,26.40
2022-08-10T22:43:39.153Z,26.40
2022-08-10T22:46:37.685Z,26.40
2022-08-10T22:49:05.176Z,26.40
2022-08-10T22:51:56.395Z,26.30
2022-08-10T22:54:54.837Z,26.40
2022-08-10T22:57:41.925Z,26.30
2022-08-10T23:00:18.548Z,26.30
2022-08-10T23:03:10.726Z,26.30
2022-08-10T23:05:48.529Z,26.30
2022-08-10T23:08:33.501Z,26.30
2022-08-10T23:11:07.768Z,26.20
2022-08-10T23:13:42.498Z,26.20
2022-08-10T23:16:38.126Z,26.20
2022-08-10T23:19:13.992Z,26.20
2022-08-10T23:22:08.784Z,26.20
2022-08-10T23:24:45.045Z,26.20
2022-08-10T23:27:37.500Z,26.20
2022-08-10T23:30:11.084Z,26.10
2022-08-10T23:32:46.652Z,26.10
2022-08-10T23:36:29.623Z,26.10
2022-08-10T23:38:08.358Z,26.10
2022-08-10T23:40:36.612Z,26.10
2022-08-10T23:43:05.743Z,26.10
2022-08-10T23:45:53.676Z,26.10
2022-08-10T23:48:25.543Z,26.10
2022-08-10T23:50:59.810Z,26.00
2022-08-10T23:53:33.427Z,26.00
2022-08-10T23:56:04.289Z,26.10
2022-08-10T23:58:42.401Z,26.10
